Time;durP1;ratioP1;P1;durP2;ratioP2;P2;SDS_P1;SDS_P2;PMS_P1;PMS_P2;Temp;Humidity;BMP_temperature;BMP_pressure;BME280_temperature;BME280_humidity;BME280_pressure;Samples;Min_cycle;Max_cycle;Signal;HPM_P1;HPM_P2
2024/03/05 00:00:10;;;;;;;26.80;11.88;;;;;;;;;;5015738;28;20060;-78
2024/03/05 00:02:38;;;;;;;25.20;6.63;;;;;;;;;;4997749;28;20511;-77
2024/03/05 00:05:07;;;;;;;11.57;1.47;;;;;;;;;;5015060;28;20054;-77
2024/03/05 00:07:35;;;;;;;16.98;2.33;;;;;;;;;;5014449;28;20049;-78
2024/03/05 00:10:07;;;;;;;11.20;1.70;;;;;;;;;;5014473;28;20042;-78
2024/03/05 00:12:34;;;;;;;19.45;2.33;;;;;;;;;;4997875;28;20125;-79
2024/03/05 00:15:01;;;;;;;11.98;2.15;;;;;;;;;;5014181;28;20038;-79
2024/03/05 00:17:28;;;;;;;12.85;1.92;;;;;;;;;;5015015;28;20046;-78
2024/03/05 00:19:55;;;;;;;19.50;2.35;;;;;;;;;;5014197;28;20066;-78
2024/03/05 00:22:22;;;;;;;15.05;2.88;;;;;;;;;;5014772;28;20050;-78
2024/03/05 00:24:48;;;;;;;12.00;1.13;;;;;;;;;;5014095;28;20120;-78
2024/03/05 00:27:15;;;;;;;8.43;1.63;;;;;;;;;;5013481;28;20507;-78
2024/03/05 00:29:42;;;;;;;9.85;2.63;;;;;;;;;;5014267;28;20068;-78
2024/03/05 00:32:09;;;;;;;8.35;1.90;;;;;;;;;;5013832;28;20129;-78
2024/03/05 00:34:35;;;;;;;12.25;1.30;;;;;;;;;;5013811;28;20408;-78
2024/03/05 00:37:02;;;;;;;7.38;1.13;;;;;;;;;;5013925;28;20046;-78
2024/03/05 00:39:29;;;;;;;4.90;1.30;;;;;;;;;;5013217;28;20042;-79
2024/03/05 00:41:55;;;;;;;8.38;1.10;;;;;;;;;;5014000;28;20046;-78
2024/03/05 00:44:22;;;;;;;7.03;1.30;;;;;;;;;;4996827;28;20048;-78
2024/03/05 00:46:49;;;;;;;6.85;0.77;;;;;;;;;;5013990;28;20134;-78
2024/03/05 00:49:16;;;;;;;9.25;2.40;;;;;;;;;;5013391;28;20038;-78
2024/03/05 00:51:43;;;;;;;5.60;1.05;;;;;;;;;;5013523;28;20054;-78
2024/03/05 00:54:12;;;;;;;8.20;1.50;;;;;;;;;;5013019;28;20132;-77
2024/03/05 00:56:38;;;;;;;5.82;1.13;;;;;;;;;;4997423;28;20053;-77
2024/03/05 00:59:05;;;;;;;10.60;1.17;;;;;;;;;;5012979;28;20538;-78
2024/03/05 01:01:33;;;;;;;8.75;1.48;;;;;;;;;;5014672;28;20397;-77
2024/03/05 01:04:00;;;;;;;6.18;1.00;;;;;;;;;;5014762;28;20042;-77
2024/03/05 01:06:27;;;;;;;7.93;0.95;;;;;;;;;;5013951;28;20062;-78
2024/03/05 01:08:53;;;;;;;16.75;2.78;;;;;;;;;;5013137;28;20049;-78
2024/03/05 01:11:20;;;;;;;7.57;1.40;;;;;;;;;;5013029;28;20041;-78
2024/03/05 01:13:47;;;;;;;8.27;1.30;;;;;;;;;;5014013;28;20046;-77
2024/03/05 01:16:14;;;;;;;12.02;1.98;;;;;;;;;;5012754;28;20045;-78
2024/03/05 01:18:41;;;;;;;9.63;1.13;;;;;;;;;;4996822;28;20057;-78
2024/03/05 01:21:08;;;;;;;11.52;2.25;;;;;;;;;;5014159;28;20042;-78
2024/03/05 01:23:35;;;;;;;13.00;2.17;;;;;;;;;;5014452;28;20054;-78
2024/03/05 01:26:02;;;;;;;11.60;1.30;;;;;;;;;;4999776;28;20050;-78
2024/03/05 01:28:29;;;;;;;11.10;1.42;;;;;;;;;;4992833;28;20046;-78
2024/03/05 01:30:58;;;;;;;8.38;1.13;;;;;;;;;;4994217;28;20047;-78
2024/03/05 01:33:26;;;;;;;11.05;2.30;;;;;;;;;;4992798;28;20038;-77
2024/03/05 01:35:52;;;;;;;12.93;1.50;;;;;;;;;;5012792;28;20046;-78
2024/03/05 01:38:20;;;;;;;13.73;1.75;;;;;;;;;;5012503;28;20050;-79
2024/03/05 01:40:47;;;;;;;12.07;1.25;;;;;;;;;;5013939;28;20046;-78
2024/03/05 01:43:14;;;;;;;12.68;1.60;;;;;;;;;;5013465;28;20037;-78
2024/03/05 01:45:42;;;;;;;10.68;1.60;;;;;;;;;;5013652;28;20484;-78
2024/03/05 01:48:11;;;;;;;9.23;1.98;;;;;;;;;;5013541;28;20050;-78
2024/03/05 01:50:38;;;;;;;5.60;0.90;;;;;;;;;;5012571;28;20050;-77
2024/03/05 01:53:08;;;;;;;9.30;1.20;;;;;;;;;;5013446;28;20052;-78
2024/03/05 01:55:37;;;;;;;13.30;1.50;;;;;;;;;;5012351;28;20046;-79
2024/03/05 01:58:06;;;;;;;7.70;1.60;;;;;;;;;;5012978;28;20045;-78
2024/03/05 02:00:36;;;;;;;10.80;1.80;;;;;;;;;;5012286;28;20050;-78
2024/03/05 02:03:03;;;;;;;11.15;1.40;;;;;;;;;;5012384;28;20104;-78
2024/03/05 02:05:29;;;;;;;10.52;2.28;;;;;;;;;;5013045;28;20046;-78
2024/03/05 02:07:57;;;;;;;8.43;1.00;;;;;;;;;;5012372;28;20376;-78
2024/03/05 02:10:24;;;;;;;14.70;1.60;;;;;;;;;;5011842;28;20541;-78
2024/03/05 02:12:52;;;;;;;10.85;1.30;;;;;;;;;;5013478;28;20100;-78
2024/03/05 02:15:19;;;;;;;11.43;1.25;;;;;;;;;;5013817;28;20140;-78
2024/03/05 02:17:46;;;;;;;12.70;1.83;;;;;;;;;;5012214;28;20056;-78
2024/03/05 02:20:13;;;;;;;9.93;1.75;;;;;;;;;;5012095;28;20042;-78
2024/03/05 02:22:41;;;;;;;4.57;0.80;;;;;;;;;;5014264;28;20040;-77
2024/03/05 02:25:09;;;;;;;3.70;0.80;;;;;;;;;;5004838;28;20061;-78
2024/03/05 02:27:38;;;;;;;5.22;0.50;;;;;;;;;;4990943;28;20042;-78
2024/03/05 02:30:10;;;;;;;5.05;0.65;;;;;;;;;;4990429;28;20038;-78
2024/03/05 02:32:41;;;;;;;3.60;0.60;;;;;;;;;;4990544;28;20057;-78
2024/03/05 02:35:09;;;;;;;4.60;0.70;;;;;;;;;;5002991;28;20080;-78
2024/03/05 02:37:40;;;;;;;2.38;0.70;;;;;;;;;;5010254;28;20038;-78
2024/03/05 02:40:08;;;;;;;8.73;1.00;;;;;;;;;;5011498;28;20045;-78
2024/03/05 02:42:36;;;;;;;8.00;0.90;;;;;;;;;;5012235;28;20054;-77
2024/03/05 02:45:07;;;;;;;6.18;0.88;;;;;;;;;;5011732;28;20384;-78
2024/03/05 02:47:36;;;;;;;7.85;0.90;;;;;;;;;;5011515;28;20042;-78
2024/03/05 02:50:07;;;;;;;;;;;;;;;;;;5012405;28;20046;-78
2024/03/05 02:52:35;;;;;;;8.43;1.10;;;;;;;;;;4995191;28;19922;-78
2024/03/05 02:55:03;;;;;;;7.33;1.20;;;;;;;;;;5013066;28;20477;-78
2024/03/05 02:57:29;;;;;;;8.65;1.00;;;;;;;;;;5012921;28;20107;-78
2024/03/05 02:59:56;;;;;;;7.03;1.58;;;;;;;;;;5012949;28;20056;-78
2024/03/05 03:02:23;;;;;;;11.75;1.50;;;;;;;;;;5011117;28;20053;-78
2024/03/05 03:04:51;;;;;;;9.38;1.08;;;;;;;;;;5011667;28;20056;-78
2024/03/05 03:07:18;;;;;;;12.10;1.75;;;;;;;;;;5011286;28;20054;-78
2024/03/05 03:09:46;;;;;;;17.05;1.65;;;;;;;;;;5014054;28;20054;-78
2024/03/05 03:12:13;;;;;;;12.32;1.52;;;;;;;;;;5016543;28;20045;-78
2024/03/05 03:14:44;;;;;;;11.48;1.58;;;;;;;;;;5016974;28;20046;-77
2024/03/05 03:17:11;;;;;;;11.55;1.88;;;;;;;;;;5014985;28;20100;-77
2024/03/05 03:19:38;;;;;;;11.23;1.90;;;;;;;;;;4998978;28;20045;-78
2024/03/05 03:22:05;;;;;;;11.82;1.23;;;;;;;;;;4998597;28;20120;-78
2024/03/05 03:24:31;;;;;;;13.68;2.15;;;;;;;;;;5015496;28;20105;-78
2024/03/05 03:26:58;;;;;;;8.65;1.35;;;;;;;;;;5021278;28;20042;-78
2024/03/05 03:29:26;;;;;;;15.00;1.88;;;;;;;;;;5003258;28;20551;-79
2024/03/05 03:31:55;;;;;;;20.23;2.07;;;;;;;;;;5003841;28;20050;-77
2024/03/05 03:34:22;;;;;;;13.32;1.42;;;;;;;;;;5021094;28;20041;-77
2024/03/05 03:36:49;;;;;;;16.58;1.75;;;;;;;;;;5019750;28;20075;-79
2024/03/05 03:39:23;;;;;;;12.10;1.58;;;;;;;;;;5014343;28;20100;-78
2024/03/05 03:41:53;;;;;;;10.18;1.35;;;;;;;;;;5016153;28;20050;-78
2024/03/05 03:44:22;;;;;;;10.65;1.42;;;;;;;;;;5014463;28;20038;-78
2024/03/05 03:46:50;;;;;;;13.77;1.95;;;;;;;;;;5016018;28;20049;-78
2024/03/05 03:49:23;;;;;;;11.52;1.35;;;;;;;;;;5015576;28;20062;-79
2024/03/05 03:51:53;;;;;;;11.65;1.13;;;;;;;;;;5015887;28;20053;-78
2024/03/05 03:54:24;;;;;;;7.97;1.42;;;;;;;;;;5015328;28;20050;-78
2024/03/05 03:56:51;;;;;;;8.75;1.30;;;;;;;;;;5015967;28;20457;-79
2024/03/05 03:59:20;;;;;;;13.77;1.90;;;;;;;;;;5014202;28;20045;-79
2024/03/05 04:01:50;;;;;;;10.70;1.20;;;;;;;;;;5014665;28;20503;-78
2024/03/05 04:04:17;;;;;;;10.63;1.25;;;;;;;;;;5015324;28;20049;-78
2024/03/05 04:06:47;;;;;;;7.22;0.93;;;;;;;;;;5014377;28;20096;-78
2024/03/05 04:09:14;;;;;;;10.05;1.27;;;;;;;;;;5013546;28;20057;-77
2024/03/05 04:11:42;;;;;;;14.00;1.48;;;;;;;;;;5014503;28;20096;-78
2024/03/05 04:14:09;;;;;;;8.53;1.20;;;;;;;;;;5014031;28;20069;-78
2024/03/05 04:16:40;;;;;;;14.82;1.42;;;;;;;;;;5015352;28;20292;-78
2024/03/05 04:19:07;;;;;;;11.95;1.45;;;;;;;;;;5014855;28;20468;-78
2024/03/05 04:21:41;;;;;;;15.38;1.55;;;;;;;;;;5015371;28;20050;-78
2024/03/05 04:24:14;;;;;;;12.23;2.25;;;;;;;;;;5014979;28;20045;-78
2024/03/05 04:26:42;;;;;;;11.82;1.80;;;;;;;;;;4995978;28;20392;-78
2024/03/05 04:29:15;;;;;;;12.55;1.42;;;;;;;;;;4995390;28;20486;-78
2024/03/05 04:31:43;;;;;;;19.70;2.33;;;;;;;;;;4994355;28;20050;-78
2024/03/05 04:34:20;;;;;;;20.40;1.52;;;;;;;;;;5000351;28;20038;-78
2024/03/05 04:36:51;;;;;;;19.15;2.10;;;;;;;;;;5016372;28;20128;-77
2024/03/05 04:39:22;;;;;;;14.07;1.63;;;;;;;;;;5013545;28;20046;-79
2024/03/05 04:41:49;;;;;;;11.02;1.30;;;;;;;;;;5015958;28;20046;-78
2024/03/05 04:44:16;;;;;;;14.20;1.55;;;;;;;;;;5015468;28;20128;-78
2024/03/05 04:46:42;;;;;;;19.15;1.70;;;;;;;;;;4997670;28;20041;-78
2024/03/05 04:49:09;;;;;;;14.32;1.90;;;;;;;;;;5014136;28;20056;-78
2024/03/05 04:51:37;;;;;;;15.05;1.65;;;;;;;;;;5014424;28;20222;-78
2024/03/05 04:54:04;;;;;;;16.73;1.90;;;;;;;;;;5013178;28;20045;-78
2024/03/05 04:56:31;;;;;;;16.40;2.35;;;;;;;;;;5015731;28;20455;-78
2024/03/05 04:58:57;;;;;;;17.88;1.58;;;;;;;;;;5013982;28;20049;-78
2024/03/05 05:01:24;;;;;;;15.73;1.63;;;;;;;;;;5014721;28;20042;-78
2024/03/05 05:03:51;;;;;;;14.88;1.42;;;;;;;;;;5014204;28;20043;-78
2024/03/05 05:06:18;;;;;;;12.82;2.13;;;;;;;;;;4996871;28;20080;-78
2024/03/05 05:08:45;;;;;;;16.02;1.48;;;;;;;;;;5012827;28;20046;-78
2024/03/05 05:11:12;;;;;;;13.23;1.48;;;;;;;;;;4995173;28;20060;-78
2024/03/05 05:13:40;;;;;;;11.07;1.30;;;;;;;;;;4995479;28;20050;-78
2024/03/05 05:16:11;;;;;;;10.30;1.90;;;;;;;;;;4995428;28;20105;-79
2024/03/05 05:18:38;;;;;;;13.70;1.65;;;;;;;;;;4995294;28;20137;-79
2024/03/05 05:21:07;;;;;;;14.30;1.58;;;;;;;;;;5013369;28;20061;-78
2024/03/05 05:23:34;;;;;;;13.35;2.35;;;;;;;;;;5014709;28;20049;-78
2024/03/05 05:26:02;;;;;;;7.63;1.38;;;;;;;;;;5013666;28;20460;-78
2024/03/05 05:28:28;;;;;;;9.32;1.45;;;;;;;;;;5014203;28;20063;-78
2024/03/05 05:30:55;;;;;;;12.40;1.58;;;;;;;;;;4996369;28;20034;-78
2024/03/05 05:33:22;;;;;;;10.40;1.35;;;;;;;;;;4996956;28;20284;-78
2024/03/05 05:35:50;;;;;;;9.00;1.35;;;;;;;;;;5012365;28;20038;-78
2024/03/05 05:38:17;;;;;;;12.23;1.75;;;;;;;;;;5012744;28;20145;-78
2024/03/05 05:40:43;;;;;;;20.30;1.92;;;;;;;;;;5003568;28;20069;-78
2024/03/05 05:43:11;;;;;;;10.82;1.85;;;;;;;;;;5012179;28;20038;-78
2024/03/05 05:45:38;;;;;;;11.43;2.25;;;;;;;;;;4994746;28;20042;-78
2024/03/05 05:48:05;;;;;;;20.17;2.17;;;;;;;;;;5012016;28;20052;-78
2024/03/05 05:50:32;;;;;;;17.63;1.58;;;;;;;;;;4995304;28;20060;-78
2024/03/05 05:52:59;;;;;;;13.75;1.60;;;;;;;;;;5013542;28;20046;-78
2024/03/05 05:55:26;;;;;;;10.63;2.13;;;;;;;;;;5013218;28;20491;-79
2024/03/05 05:57:55;;;;;;;23.02;2.70;;;;;;;;;;5012421;28;20092;-78
2024/03/05 06:00:32;;;;;;;20.02;2.45;;;;;;;;;;5012127;28;20046;-78
2024/03/05 06:03:00;;;;;;;20.77;2.85;;;;;;;;;;5013684;28;20069;-78
2024/03/05 06:05:31;;;;;;;19.55;2.95;;;;;;;;;;5010344;28;20472;-79
2024/03/05 06:07:59;;;;;;;12.73;2.30;;;;;;;;;;5013148;28;20050;-77
2024/03/05 06:10:28;;;;;;;19.70;2.78;;;;;;;;;;5012544;28;20124;-81
2024/03/05 06:12:56;;;;;;;17.77;2.53;;;;;;;;;;5011701;28;20049;-79
2024/03/05 06:15:23;;;;;;;20.42;2.70;;;;;;;;;;5011839;28;20112;-79
2024/03/05 06:17:51;;;;;;;15.07;2.13;;;;;;;;;;5012173;28;20052;-79
2024/03/05 06:20:18;;;;;;;15.55;1.98;;;;;;;;;;5011880;28;20132;-79
2024/03/05 06:22:45;;;;;;;19.88;2.30;;;;;;;;;;5013843;28;20495;-78
2024/03/05 06:25:16;;;;;;;16.92;2.25;;;;;;;;;;5012973;28;20342;-78
2024/03/05 06:27:44;;;;;;;11.57;2.38;;;;;;;;;;5013327;28;20129;-78
2024/03/05 06:30:17;;;;;;;14.80;2.15;;;;;;;;;;5012798;28;20037;-78
2024/03/05 06:32:48;;;;;;;16.85;1.83;;;;;;;;;;5011957;28;20049;-78
2024/03/05 06:35:17;;;;;;;20.10;2.13;;;;;;;;;;5009846;28;20038;-79
2024/03/05 06:37:45;;;;;;;;;;;;;;;;;;4994824;28;20049;-78
2024/03/05 06:40:13;;;;;;;11.82;2.50;;;;;;;;;;5010933;28;20326;-78
2024/03/05 06:42:41;;;;;;;23.25;2.67;;;;;;;;;;5013118;28;20077;-78
2024/03/05 06:45:08;;;;;;;21.57;2.73;;;;;;;;;;5016121;28;20046;-78
2024/03/05 06:47:39;;;;;;;14.23;2.45;;;;;;;;;;5016909;28;20285;-79
2024/03/05 06:50:08;;;;;;;14.32;2.17;;;;;;;;;;5015532;28;20049;-77
2024/03/05 06:58:07;;;;;;;11.02;1.60;;;;;;;;;;5014760;28;20052;-79
2024/03/05 07:00:34;;;;;;;12.35;1.60;;;;;;;;;;5015436;28;20165;-78
2024/03/05 07:03:04;;;;;;;11.93;1.33;;;;;;;;;;5016610;28;20062;-78
2024/03/05 07:05:32;;;;;;;9.52;1.00;;;;;;;;;;4999739;28;20125;-78
2024/03/05 07:08:02;;;;;;;7.00;0.80;;;;;;;;;;5016998;28;20053;-78
2024/03/05 07:10:29;;;;;;;1.88;0.68;;;;;;;;;;5016072;28;20439;-77
2024/03/05 07:12:56;;;;;;;6.20;1.13;;;;;;;;;;5015274;28;20046;-79
2024/03/05 07:15:23;;;;;;;4.75;0.73;;;;;;;;;;4998597;28;20044;-78
2024/03/05 07:17:50;;;;;;;4.75;0.93;;;;;;;;;;5015284;28;20034;-78
2024/03/05 07:20:22;;;;;;;6.97;0.90;;;;;;;;;;5015551;28;20133;-79
2024/03/05 07:22:51;;;;;;;7.55;0.90;;;;;;;;;;5014463;28;20129;-79
2024/03/05 07:25:18;;;;;;;7.10;1.38;;;;;;;;;;4998215;28;20124;-79
2024/03/05 07:27:46;;;;;;;12.05;1.38;;;;;;;;;;4997974;28;20060;-79
2024/03/05 07:30:17;;;;;;;8.77;2.25;;;;;;;;;;5014459;28;20030;-79
2024/03/05 07:32:48;;;;;;;6.25;0.70;;;;;;;;;;4987698;28;20046;-79
2024/03/05 07:35:17;;;;;;;5.63;0.98;;;;;;;;;;5001021;28;20039;-79
2024/03/05 07:37:45;;;;;;;6.38;1.05;;;;;;;;;;4998299;28;20057;-79
2024/03/05 07:40:16;;;;;;;7.72;0.93;;;;;;;;;;5017869;28;20129;-80
2024/03/05 07:42:51;;;;;;;5.63;0.98;;;;;;;;;;5018367;28;20042;-78
2024/03/05 07:45:22;;;;;;;5.68;1.10;;;;;;;;;;5018697;28;20045;-79
2024/03/05 07:47:50;;;;;;;9.77;0.88;;;;;;;;;;5005828;28;20053;-78
2024/03/05 07:50:17;;;;;;;13.90;1.80;;;;;;;;;;5014189;28;20034;-79
2024/03/05 07:52:46;;;;;;;12.80;1.50;;;;;;;;;;5015921;28;20057;-78
2024/03/05 07:55:16;;;;;;;7.65;1.30;;;;;;;;;;5013387;28;20237;-78
2024/03/05 07:57:56;;;;;;;7.30;1.10;;;;;;;;;;4999144;28;20108;-77
2024/03/05 08:00:24;;;;;;;11.18;1.50;;;;;;;;;;4997616;28;20042;-78
2024/03/05 08:02:54;;;;;;;12.10;2.13;;;;;;;;;;5014486;28;20440;-78
2024/03/05 08:05:23;;;;;;;9.68;1.67;;;;;;;;;;5014962;28;20056;-78
2024/03/05 08:07:51;;;;;;;14.20;1.75;;;;;;;;;;5015244;28;20050;-78
2024/03/05 08:10:18;;;;;;;10.77;1.58;;;;;;;;;;5013315;28;20073;-79
2024/03/05 08:12:46;;;;;;;20.38;1.80;;;;;;;;;;5000872;28;20054;-79
2024/03/05 08:15:15;;;;;;;;;;;;;;;;;;5029747;28;20064;-78
2024/03/05 08:17:46;;;;;;;10.00;1.38;;;;;;;;;;5029180;28;19921;-79
2024/03/05 08:20:18;;;;;;;9.00;2.15;;;;;;;;;;5003253;28;20049;-79
2024/03/05 08:22:46;;;;;;;10.68;1.42;;;;;;;;;;4997923;28;20042;-79
2024/03/05 08:25:15;;;;;;;11.18;1.40;;;;;;;;;;5013728;28;20400;-79
2024/03/05 08:27:44;;;;;;;14.85;1.42;;;;;;;;;;5014810;28;20093;-79
2024/03/05 08:30:16;;;;;;;9.32;1.40;;;;;;;;;;5013585;28;20046;-78
2024/03/05 08:32:43;;;;;;;9.48;2.17;;;;;;;;;;5002926;28;20041;-78
2024/03/05 08:35:14;;;;;;;6.82;1.40;;;;;;;;;;5013412;28;20042;-79
2024/03/05 08:37:46;;;;;;;7.85;1.60;;;;;;;;;;5014199;28;20046;-80
2024/03/05 08:40:15;;;;;;;10.15;1.50;;;;;;;;;;5013617;28;20045;-79
2024/03/05 08:42:46;;;;;;;6.35;1.20;;;;;;;;;;5014199;28;20092;-80
2024/03/05 08:45:23;;;;;;;10.45;2.10;;;;;;;;;;5012820;28;20076;-79
2024/03/05 08:47:52;;;;;;;13.65;1.65;;;;;;;;;;5006955;28;20092;-78
2024/03/05 08:50:20;;;;;;;9.45;1.50;;;;;;;;;;5013032;28;20046;-79
2024/03/05 08:52:48;;;;;;;12.98;2.55;;;;;;;;;;4997225;28;20054;-79
2024/03/05 08:55:17;;;;;;;14.13;2.47;;;;;;;;;;4994624;28;20366;-79
2024/03/05 08:57:45;;;;;;;16.33;2.38;;;;;;;;;;4997546;28;20054;-79
2024/03/05 09:00:15;;;;;;;14.52;1.85;;;;;;;;;;5012544;28;20046;-79
2024/03/05 09:03:02;;;;;;;10.80;1.50;;;;;;;;;;4996985;28;20054;-79
2024/03/05 09:05:31;;;;;;;11.60;2.80;;;;;;;;;;4995397;28;20053;-79
2024/03/05 09:07:58;;;;;;;;;;;;;;;;;;5012425;28;20547;-79
2024/03/05 09:10:25;;;;;;;13.38;2.00;;;;;;;;;;5012443;28;19964;-79
2024/03/05 09:12:52;;;;;;;10.25;1.33;;;;;;;;;;5012056;28;20042;-83
2024/03/05 09:15:21;;;;;;;13.45;1.50;;;;;;;;;;5012130;28;20038;-78
2024/03/05 09:17:48;;;;;;;12.32;1.52;;;;;;;;;;5012680;28;20117;-78
2024/03/05 09:20:15;;;;;;;8.10;1.20;;;;;;;;;;4994893;28;20045;-78
2024/03/05 09:22:44;;;;;;;14.13;1.80;;;;;;;;;;4995762;28;20132;-78
2024/03/05 09:25:12;;;;;;;12.40;2.08;;;;;;;;;;5010546;28;20069;-79
2024/03/05 09:27:46;;;;;;;11.00;2.00;;;;;;;;;;4995704;28;20080;-79
2024/03/05 09:30:18;;;;;;;11.82;1.80;;;;;;;;;;4995247;28;20038;-79
2024/03/05 09:32:47;;;;;;;13.90;1.90;;;;;;;;;;4996945;28;20034;-79
2024/03/05 09:35:15;;;;;;;13.45;2.35;;;;;;;;;;4994674;28;20042;-80
2024/03/05 09:37:48;;;;;;;21.25;2.47;;;;;;;;;;4996130;28;20042;-81
2024/03/05 09:40:24;;;;;;;11.52;1.90;;;;;;;;;;5011122;28;20060;-79
2024/03/05 09:42:58;;;;;;;15.45;1.33;;;;;;;;;;5006177;28;20042;-79
2024/03/05 09:45:28;;;;;;;9.35;1.52;;;;;;;;;;5008848;28;20133;-80
2024/03/05 09:47:55;;;;;;;14.75;2.80;;;;;;;;;;5011571;28;20480;-80
2024/03/05 09:50:24;;;;;;;11.00;2.08;;;;;;;;;;5011292;28;20421;-79
2024/03/05 09:52:54;;;;;;;15.00;1.83;;;;;;;;;;5008059;28;20033;-79
2024/03/05 09:55:21;;;;;;;7.18;2.00;;;;;;;;;;4993968;28;20092;-80
2024/03/05 09:57:49;;;;;;;15.55;2.42;;;;;;;;;;4994944;28;20049;-79
2024/03/05 10:00:19;;;;;;;9.82;2.38;;;;;;;;;;4995031;28;20037;-79
2024/03/05 10:02:50;;;;;;;14.73;2.33;;;;;;;;;;4995142;28;20038;-79
2024/03/05 10:05:18;;;;;;;9.88;1.63;;;;;;;;;;5005941;28;20057;-80
2024/03/05 10:07:48;;;;;;;12.05;1.55;;;;;;;;;;5007019;28;20042;-78
2024/03/05 10:10:21;;;;;;;15.57;2.20;;;;;;;;;;5011443;28;20096;-79
2024/03/05 10:12:52;;;;;;;7.93;1.20;;;;;;;;;;5017457;28;20045;-79
2024/03/05 10:15:23;;;;;;;9.70;1.55;;;;;;;;;;4994628;28;20407;-79
2024/03/05 10:17:52;;;;;;;10.07;1.27;;;;;;;;;;5011455;28;20034;-79
2024/03/05 10:20:33;;;;;;;7.97;1.60;;;;;;;;;;5008539;28;20577;-79
2024/03/05 10:23:03;;;;;;;11.23;1.60;;;;;;;;;;5009891;28;20560;-79
2024/03/05 10:25:34;;;;;;;11.18;2.08;;;;;;;;;;4993364;28;20428;-79
2024/03/05 10:28:03;;;;;;;14.95;3.13;;;;;;;;;;5009074;28;20049;-78
2024/03/05 10:30:34;;;;;;;17.63;3.38;;;;;;;;;;5008942;28;20049;-80
2024/03/05 10:33:03;;;;;;;19.85;3.55;;;;;;;;;;4991807;28;20041;-80
2024/03/05 10:35:35;;;;;;;;;;;;;;;;;;5007870;28;20042;-80
2024/03/05 10:38:11;;;;;;;13.98;2.60;;;;;;;;;;5008138;28;19922;-79
2024/03/05 10:40:39;;;;;;;11.48;1.83;;;;;;;;;;4994347;28;20046;-79
2024/03/05 10:43:08;;;;;;;10.25;2.03;;;;;;;;;;5011653;28;20038;-79
2024/03/05 10:45:39;;;;;;;16.23;2.75;;;;;;;;;;4995053;28;20406;-80
2024/03/05 10:48:09;;;;;;;13.18;2.80;;;;;;;;;;5011131;28;20048;-80
2024/03/05 10:50:46;;;;;;;10.77;2.75;;;;;;;;;;4990797;28;20042;-80
2024/03/05 10:53:16;;;;;;;10.80;3.67;;;;;;;;;;4994541;28;20057;-81
2024/03/05 10:55:44;;;;;;;14.35;1.77;;;;;;;;;;5010331;28;20045;-80
2024/03/05 11:00:43;;;;;;;10.55;1.85;;;;;;;;;;5010526;28;20432;-80
2024/03/05 11:03:14;;;;;;;20.00;3.97;;;;;;;;;;4993545;28;20461;-81
2024/03/05 11:05:47;;;;;;;20.92;3.05;;;;;;;;;;5009639;28;20486;-80
2024/03/05 11:08:20;;;;;;;14.55;2.08;;;;;;;;;;4992077;28;20042;-80
2024/03/05 11:10:53;;;;;;;16.30;3.17;;;;;;;;;;4991986;28;20049;-81
2024/03/05 11:13:21;;;;;;;16.35;2.72;;;;;;;;;;4992028;28;20042;-81
2024/03/05 11:15:51;;;;;;;13.95;1.90;;;;;;;;;;5011068;28;20041;-81
2024/03/05 11:18:32;;;;;;;14.82;1.85;;;;;;;;;;5010192;28;20053;-81
2024/03/05 11:21:12;;;;;;;19.70;2.42;;;;;;;;;;5012437;28;20136;-80
2024/03/05 11:23:42;;;;;;;12.60;1.85;;;;;;;;;;5011921;28;20048;-81
2024/03/05 11:26:21;;;;;;;16.48;1.92;;;;;;;;;;5013200;28;20038;-81
2024/03/05 11:28:48;;;;;;;14.10;1.58;;;;;;;;;;5019054;28;20125;-80
2024/03/05 11:31:17;;;;;;;12.32;1.95;;;;;;;;;;5025397;28;20042;-79
2024/03/05 11:34:02;;;;;;;11.45;2.08;;;;;;;;;;5000074;28;20395;-81
2024/03/05 11:36:33;;;;;;;15.82;1.77;;;;;;;;;;5012593;28;20394;-79
2024/03/05 11:39:08;;;;;;;15.30;2.20;;;;;;;;;;5014147;28;20049;-80
2024/03/05 11:41:37;;;;;;;12.65;1.77;;;;;;;;;;5015145;28;20038;-80
2024/03/05 11:44:04;;;;;;;9.93;1.77;;;;;;;;;;5012247;28;20038;-79
2024/03/05 11:46:49;;;;;;;18.67;2.20;;;;;;;;;;5012620;28;20038;-79
2024/03/05 11:49:20;;;;;;;13.75;2.45;;;;;;;;;;5012730;28;20586;-79
2024/03/05 11:51:47;;;;;;;9.88;1.65;;;;;;;;;;4998255;28;20093;-80
2024/03/05 11:54:16;;;;;;;16.70;2.13;;;;;;;;;;4997825;28;20125;-79
2024/03/05 11:56:59;;;;;;;14.82;1.77;;;;;;;;;;5015909;28;20050;-80
2024/03/05 11:59:33;;;;;;;18.23;1.67;;;;;;;;;;5014292;28;20050;-80
2024/03/05 12:02:00;;;;;;;14.75;2.28;;;;;;;;;;5014297;28;20048;-79
2024/03/05 12:04:27;;;;;;;13.45;2.15;;;;;;;;;;5013277;28;20057;-80
2024/03/05 12:07:06;;;;;;;10.60;2.58;;;;;;;;;;5013144;28;20044;-80
2024/03/05 12:09:38;;;;;;;9.07;2.03;;;;;;;;;;4996564;28;20042;-79
2024/03/05 12:12:06;;;;;;;11.90;2.17;;;;;;;;;;5014477;28;20049;-79
2024/03/05 12:14:34;;;;;;;16.45;2.50;;;;;;;;;;5012686;28;20056;-79
2024/03/05 12:17:03;;;;;;;10.10;1.60;;;;;;;;;;4996839;28;20104;-79
2024/03/05 12:19:31;;;;;;;11.40;2.10;;;;;;;;;;5012874;28;20052;-80
2024/03/05 12:21:59;;;;;;;14.88;1.77;;;;;;;;;;5010269;28;20133;-80
2024/03/05 12:24:31;;;;;;;16.20;2.45;;;;;;;;;;5014224;28;20570;-80
2024/03/05 12:26:58;;;;;;;15.18;2.03;;;;;;;;;;4994816;28;20077;-80
2024/03/05 12:29:33;;;;;;;13.18;2.00;;;;;;;;;;5012499;28;20424;-80
2024/03/05 12:32:12;;;;;;;12.77;1.67;;;;;;;;;;4996646;28;20046;-79
2024/03/05 12:34:46;;;;;;;14.88;1.70;;;;;;;;;;5013261;28;20130;-80
2024/03/05 12:37:15;;;;;;;11.57;1.50;;;;;;;;;;5011976;28;20476;-80
2024/03/05 12:39:42;;;;;;;;;;;;;;;;;;5013895;28;20140;-80
2024/03/05 12:42:13;;;;;;;16.30;2.20;;;;;;;;;;5013794;28;20016;-79
2024/03/05 12:44:41;;;;;;;13.35;2.70;;;;;;;;;;5009556;28;20046;-79
2024/03/05 12:47:21;;;;;;;14.30;1.80;;;;;;;;;;5012998;28;20046;-79
2024/03/05 12:49:50;;;;;;;12.60;2.10;;;;;;;;;;5012663;28;20295;-78
2024/03/05 12:52:23;;;;;;;13.93;1.80;;;;;;;;;;5013757;28;20042;-79
2024/03/05 12:55:03;;;;;;;13.07;2.35;;;;;;;;;;5008826;28;20088;-79
2024/03/05 12:57:31;;;;;;;12.20;1.42;;;;;;;;;;5012381;28;20133;-80
2024/03/05 13:00:00;;;;;;;12.52;2.08;;;;;;;;;;5013861;28;20046;-80
2024/03/05 13:02:28;;;;;;;12.95;1.83;;;;;;;;;;5011480;28;20044;-80
2024/03/05 13:04:55;;;;;;;11.20;2.13;;;;;;;;;;4996293;28;20049;-80
2024/03/05 13:07:25;;;;;;;13.27;2.05;;;;;;;;;;5012936;28;20084;-80
2024/03/05 13:09:54;;;;;;;22.75;2.90;;;;;;;;;;5012113;28;20086;-79
2024/03/05 13:12:21;;;;;;;18.52;2.22;;;;;;;;;;5012022;28;20101;-80
2024/03/05 13:14:50;;;;;;;18.77;2.88;;;;;;;;;;5021453;28;20077;-79
2024/03/05 13:17:21;;;;;;;20.48;2.83;;;;;;;;;;5024209;28;20103;-79
2024/03/05 13:19:47;;;;;;;12.85;2.30;;;;;;;;;;5022809;28;20042;-80
2024/03/05 13:22:19;;;;;;;23.70;2.35;;;;;;;;;;4996037;28;20038;-80
2024/03/05 13:24:47;;;;;;;15.23;2.75;;;;;;;;;;5013181;28;20034;-79
2024/03/05 13:27:14;;;;;;;21.67;2.45;;;;;;;;;;5013161;28;20116;-80
2024/03/05 13:29:40;;;;;;;15.73;2.45;;;;;;;;;;5012723;28;20485;-80
2024/03/05 13:32:07;;;;;;;17.20;1.98;;;;;;;;;;5012621;28;20054;-80
2024/03/05 13:34:34;;;;;;;20.27;3.00;;;;;;;;;;5013689;28;20049;-79
2024/03/05 13:37:01;;;;;;;13.85;2.35;;;;;;;;;;5012743;28;20060;-80
2024/03/05 13:39:29;;;;;;;22.63;2.20;;;;;;;;;;5013278;28;20108;-80
2024/03/05 13:41:56;;;;;;;15.77;2.50;;;;;;;;;;4995095;28;20292;-80
2024/03/05 13:44:23;;;;;;;15.43;1.90;;;;;;;;;;5010252;28;20052;-81
2024/03/05 13:46:51;;;;;;;15.30;2.30;;;;;;;;;;5011360;28;20503;-80
2024/03/05 13:49:19;;;;;;;18.33;2.63;;;;;;;;;;5010496;28;20107;-81
2024/03/05 13:51:47;;;;;;;;;;;;;;;;;;5014103;28;20046;-80
2024/03/05 13:54:18;;;;;;;24.42;3.63;;;;;;;;;;5012584;28;20020;-79
2024/03/05 13:56:46;;;;;;;19.60;2.20;;;;;;;;;;5013530;28;20042;-80
2024/03/05 13:59:13;;;;;;;16.13;1.98;;;;;;;;;;4995924;28;20046;-80
2024/03/05 14:01:43;;;;;;;16.70;2.42;;;;;;;;;;4996372;28;20049;-80
2024/03/05 14:04:10;;;;;;;8.85;2.00;;;;;;;;;;5011610;28;20117;-80
2024/03/05 14:06:40;;;;;;;12.32;2.33;;;;;;;;;;5011772;28;20049;-80
2024/03/05 14:09:11;;;;;;;12.48;2.17;;;;;;;;;;4994938;28;20124;-80
2024/03/05 14:11:47;;;;;;;15.57;2.58;;;;;;;;;;4995368;28;20437;-80
2024/03/05 14:14:19;;;;;;;13.27;2.20;;;;;;;;;;4995184;28;20058;-80
2024/03/05 14:16:47;;;;;;;12.02;1.60;;;;;;;;;;4995427;28;20041;-78
2024/03/05 14:19:14;;;;;;;18.08;2.45;;;;;;;;;;5011955;28;20048;-80
2024/03/05 14:21:40;;;;;;;14.75;2.67;;;;;;;;;;5009667;28;20042;-80
2024/03/05 14:24:07;;;;;;;16.67;2.83;;;;;;;;;;4993583;28;20048;-79
2024/03/05 14:26:34;;;;;;;15.70;2.28;;;;;;;;;;5009881;28;20054;-81
2024/03/05 14:29:03;;;;;;;16.08;2.90;;;;;;;;;;5010218;28;20572;-80
2024/03/05 14:31:32;;;;;;;11.05;1.95;;;;;;;;;;5011684;28;20049;-80
2024/03/05 14:33:59;;;;;;;15.38;2.13;;;;;;;;;;4995345;28;20460;-80
2024/03/05 14:36:31;;;;;;;16.15;2.22;;;;;;;;;;5011988;28;20116;-80
2024/03/05 14:38:59;;;;;;;12.85;2.58;;;;;;;;;;4994895;28;20042;-80
2024/03/05 14:41:28;;;;;;;14.65;2.22;;;;;;;;;;5010766;28;20042;-80
2024/03/05 14:43:55;;;;;;;11.85;2.00;;;;;;;;;;5011384;28;20078;-80
2024/03/05 14:46:22;;;;;;;14.15;2.50;;;;;;;;;;5026667;28;20076;-80
2024/03/05 14:48:49;;;;;;;13.50;2.22;;;;;;;;;;5010999;28;20096;-81
2024/03/05 14:51:15;;;;;;;12.35;2.15;;;;;;;;;;5009698;28;20040;-80
2024/03/05 14:53:42;;;;;;;14.15;2.15;;;;;;;;;;5011056;28;20054;-80